sensor_id;sensor_type;location;lat;lon;timestamp;P1;durP1;ratioP1;P2;durP2;ratioP2
18838;SDS011;9548;56.920;14.804;2022-12-29T00:02:24;8.13;;;3.15;;
18838;SDS011;9548;56.920;14.804;2022-12-29T00:04:50;7.82;;;2.83;;
18838;SDS011;9548;56.920;14.804;2022-12-29T00:07:18;6.18;;;2.80;;
18838;SDS011;9548;56.920;14.804;2022-12-29T00:09:45;7.47;;;2.60;;
18838;SDS011;9548;56.920;14.804;2022-12-29T00:12:12;6.72;;;2.83;;
18838;SDS011;9548;56.920;14.804;2022-12-29T00:14:40;3.80;;;2.33;;
18838;SDS011;9548;56.920;14.804;2022-12-29T00:17:24;7.28;;;3.15;;
18838;SDS011;9548;56.920;14.804;2022-12-29T00:19:51;5.10;;;2.45;;
18838;SDS011;9548;56.920;14.804;2022-12-29T00:22:35;7.65;;;2.35;;
18838;SDS011;9548;56.920;14.804;2022-12-29T00:25:20;4.72;;;2.20;;
18838;SDS011;9548;56.920;14.804;2022-12-29T00:28:04;6.40;;;2.50;;
18838;SDS011;9548;56.920;14.804;2022-12-29T00:30:52;3.47;;;1.90;;
18838;SDS011;9548;56.920;14.804;2022-12-29T00:33:37;3.58;;;2.25;;
18838;SDS011;9548;56.920;14.804;2022-12-29T00:36:22;4.18;;;1.73;;
18838;SDS011;9548;56.920;14.804;2022-12-29T00:38:52;4.55;;;1.60;;
18838;SDS011;9548;56.920;14.804;2022-12-29T00:41:40;2.05;;;1.50;;
18838;SDS011;9548;56.920;14.804;2022-12-29T00:44:24;5.80;;;1.83;;
18838;SDS011;9548;56.920;14.804;2022-12-29T00:46:52;5.22;;;2.03;;
18838;SDS011;9548;56.920;14.804;2022-12-29T00:49:19;2.00;;;1.50;;
18838;SDS011;9548;56.920;14.804;2022-12-29T00:51:58;2.05;;;1.40;;
18838;SDS011;9548;56.920;14.804;2022-12-29T00:54:27;1.60;;;1.30;;
18838;SDS011;9548;56.920;14.804;2022-12-29T00:56:54;2.65;;;1.65;;
18838;SDS011;9548;56.920;14.804;2022-12-29T00:59:22;4.32;;;1.52;;
18838;SDS011;9548;56.920;14.804;2022-12-29T01:01:49;2.53;;;1.60;;
18838;SDS011;9548;56.920;14.804;2022-12-29T01:04:19;2.20;;;1.50;;
18838;SDS011;9548;56.920;14.804;2022-12-29T01:06:46;2.13;;;1.70;;
18838;SDS011;9548;56.920;14.804;2022-12-29T01:09:13;3.03;;;1.45;;
18838;SDS011;9548;56.920;14.804;2022-12-29T01:11:58;3.30;;;1.73;;
18838;SDS011;9548;56.920;14.804;2022-12-29T01:14:26;2.92;;;1.98;;
18838;SDS011;9548;56.920;14.804;2022-12-29T01:16:53;2.92;;;1.95;;
18838;SDS011;9548;56.920;14.804;2022-12-29T01:19:23;2.63;;;1.70;;
18838;SDS011;9548;56.920;14.804;2022-12-29T01:21:50;2.78;;;1.63;;
18838;SDS011;9548;56.920;14.804;2022-12-29T01:24:17;1.70;;;1.40;;
18838;SDS011;9548;56.920;14.804;2022-12-29T01:26:45;2.83;;;1.75;;
18838;SDS011;9548;56.920;14.804;2022-12-29T01:29:13;2.40;;;1.70;;
18838;SDS011;9548;56.920;14.804;2022-12-29T01:31:40;3.90;;;1.63;;
18838;SDS011;9548;56.920;14.804;2022-12-29T01:34:07;1.67;;;1.50;;
18838;SDS011;9548;56.920;14.804;2022-12-29T01:36:35;2.33;;;1.40;;
18838;SDS011;9548;56.920;14.804;2022-12-29T01:39:02;1.70;;;1.30;;
18838;SDS011;9548;56.920;14.804;2022-12-29T01:41:29;2.20;;;1.40;;
18838;SDS011;9548;56.920;14.804;2022-12-29T01:43:57;2.50;;;1.25;;
18838;SDS011;9548;56.920;14.804;2022-12-29T01:46:26;1.75;;;1.25;;
18838;SDS011;9548;56.920;14.804;2022-12-29T01:48:58;1.17;;;1.08;;
18838;SDS011;9548;56.920;14.804;2022-12-29T01:51:31;1.38;;;1.05;;
18838;SDS011;9548;56.920;14.804;2022-12-29T01:54:07;3.33;;;1.30;;
18838;SDS011;9548;56.920;14.804;2022-12-29T01:56:37;1.65;;;1.35;;
18838;SDS011;9548;56.920;14.804;2022-12-29T01:59:05;1.40;;;1.27;;
18838;SDS011;9548;56.920;14.804;2022-12-29T02:01:36;1.50;;;1.25;;
18838;SDS011;9548;56.920;14.804;2022-12-29T02:04:03;3.50;;;1.73;;
18838;SDS011;9548;56.920;14.804;2022-12-29T02:06:31;3.08;;;1.90;;
18838;SDS011;9548;56.920;14.804;2022-12-29T02:09:03;3.15;;;1.90;;
18838;SDS011;9548;56.920;14.804;2022-12-29T02:11:31;6.50;;;2.17;;
18838;SDS011;9548;56.920;14.804;2022-12-29T02:13:58;2.40;;;1.75;;
18838;SDS011;9548;56.920;14.804;2022-12-29T02:16:34;3.33;;;1.73;;
18838;SDS011;9548;56.920;14.804;2022-12-29T02:19:23;2.90;;;1.80;;
18838;SDS011;9548;56.920;14.804;2022-12-29T02:22:11;2.80;;;1.92;;
18838;SDS011;9548;56.920;14.804;2022-12-29T02:24:48;3.17;;;1.92;;
18838;SDS011;9548;56.920;14.804;2022-12-29T02:27:43;3.08;;;1.83;;
18838;SDS011;9548;56.920;14.804;2022-12-29T02:33:20;2.80;;;1.95;;
18838;SDS011;9548;56.920;14.804;2022-12-29T02:35:56;2.15;;;1.58;;
18838;SDS011;9548;56.920;14.804;2022-12-29T02:38:37;2.20;;;1.73;;
18838;SDS011;9548;56.920;14.804;2022-12-29T02:41:16;2.53;;;1.73;;
18838;SDS011;9548;56.920;14.804;2022-12-29T02:43:48;4.45;;;1.98;;
18838;SDS011;9548;56.920;14.804;2022-12-29T02:46:21;2.42;;;1.92;;
18838;SDS011;9548;56.920;14.804;2022-12-29T02:48:54;2.80;;;2.10;;
18838;SDS011;9548;56.920;14.804;2022-12-29T02:51:33;2.65;;;1.98;;
18838;SDS011;9548;56.920;14.804;2022-12-29T02:54:04;2.22;;;1.88;;
18838;SDS011;9548;56.920;14.804;2022-12-29T02:56:49;2.75;;;2.00;;
18838;SDS011;9548;56.920;14.804;2022-12-29T02:59:16;3.33;;;1.95;;
18838;SDS011;9548;56.920;14.804;2022-12-29T03:01:50;2.75;;;2.13;;
18838;SDS011;9548;56.920;14.804;2022-12-29T03:04:44;5.55;;;2.50;;
18838;SDS011;9548;56.920;14.804;2022-12-29T03:07:33;7.00;;;2.40;;
18838;SDS011;9548;56.920;14.804;2022-12-29T03:10:12;3.08;;;2.30;;
18838;SDS011;9548;56.920;14.804;2022-12-29T03:12:46;3.50;;;2.13;;
18838;SDS011;9548;56.920;14.804;2022-12-29T03:15:39;3.10;;;2.10;;
18838;SDS011;9548;56.920;14.804;2022-12-29T03:18:30;3.40;;;2.60;;
18838;SDS011;9548;56.920;14.804;2022-12-29T03:21:08;5.40;;;2.80;;
18838;SDS011;9548;56.920;14.804;2022-12-29T03:23:41;3.75;;;2.47;;
18838;SDS011;9548;56.920;14.804;2022-12-29T03:26:15;3.97;;;2.35;;
18838;SDS011;9548;56.920;14.804;2022-12-29T03:28:45;3.47;;;2.63;;
18838;SDS011;9548;56.920;14.804;2022-12-29T03:31:15;4.78;;;2.88;;
18838;SDS011;9548;56.920;14.804;2022-12-29T03:33:46;3.67;;;2.63;;
18838;SDS011;9548;56.920;14.804;2022-12-29T03:36:16;4.03;;;2.95;;
18838;SDS011;9548;56.920;14.804;2022-12-29T03:38:50;4.53;;;2.70;;
18838;SDS011;9548;56.920;14.804;2022-12-29T03:41:24;5.53;;;3.00;;
18838;SDS011;9548;56.920;14.804;2022-12-29T03:43:55;4.80;;;2.95;;
18838;SDS011;9548;56.920;14.804;2022-12-29T03:46:21;5.28;;;3.15;;
18838;SDS011;9548;56.920;14.804;2022-12-29T03:48:50;4.40;;;2.80;;
18838;SDS011;9548;56.920;14.804;2022-12-29T03:51:17;4.95;;;3.00;;
18838;SDS011;9548;56.920;14.804;2022-12-29T03:53:43;3.83;;;2.60;;
18838;SDS011;9548;56.920;14.804;2022-12-29T03:56:10;5.68;;;3.05;;
18838;SDS011;9548;56.920;14.804;2022-12-29T03:58:37;4.05;;;3.00;;
18838;SDS011;9548;56.920;14.804;2022-12-29T04:01:04;3.72;;;2.60;;
18838;SDS011;9548;56.920;14.804;2022-12-29T04:03:31;4.28;;;2.90;;
18838;SDS011;9548;56.920;14.804;2022-12-29T04:05:59;6.68;;;3.20;;
18838;SDS011;9548;56.920;14.804;2022-12-29T04:08:26;5.35;;;2.90;;
18838;SDS011;9548;56.920;14.804;2022-12-29T04:10:53;5.05;;;3.00;;
18838;SDS011;9548;56.920;14.804;2022-12-29T04:13:20;6.05;;;3.10;;
18838;SDS011;9548;56.920;14.804;2022-12-29T04:15:47;5.47;;;3.30;;
18838;SDS011;9548;56.920;14.804;2022-12-29T04:18:19;3.63;;;2.75;;
18838;SDS011;9548;56.920;14.804;2022-12-29T04:20:46;4.32;;;3.00;;
18838;SDS011;9548;56.920;14.804;2022-12-29T04:23:27;4.18;;;2.60;;
18838;SDS011;9548;56.920;14.804;2022-12-29T04:25:55;4.70;;;2.90;;
18838;SDS011;9548;56.920;14.804;2022-12-29T04:28:22;4.18;;;2.33;;
18838;SDS011;9548;56.920;14.804;2022-12-29T04:30:49;4.15;;;2.97;;
18838;SDS011;9548;56.920;14.804;2022-12-29T04:33:16;4.20;;;2.90;;
18838;SDS011;9548;56.920;14.804;2022-12-29T04:35:43;4.00;;;2.97;;
18838;SDS011;9548;56.920;14.804;2022-12-29T04:38:10;3.83;;;2.72;;
18838;SDS011;9548;56.920;14.804;2022-12-29T04:40:39;3.47;;;2.35;;
18838;SDS011;9548;56.920;14.804;2022-12-29T04:43:07;4.60;;;2.80;;
18838;SDS011;9548;56.920;14.804;2022-12-29T04:45:34;4.82;;;2.65;;
18838;SDS011;9548;56.920;14.804;2022-12-29T04:48:02;4.57;;;2.70;;
18838;SDS011;9548;56.920;14.804;2022-12-29T04:50:29;5.78;;;2.75;;
18838;SDS011;9548;56.920;14.804;2022-12-29T04:52:56;3.17;;;2.60;;
18838;SDS011;9548;56.920;14.804;2022-12-29T04:55:23;5.25;;;2.60;;
18838;SDS011;9548;56.920;14.804;2022-12-29T04:57:51;5.28;;;2.45;;
18838;SDS011;9548;56.920;14.804;2022-12-29T05:00:18;3.72;;;2.72;;
18838;SDS011;9548;56.920;14.804;2022-12-29T05:02:46;2.97;;;2.33;;
18838;SDS011;9548;56.920;14.804;2022-12-29T05:05:12;4.95;;;2.50;;
18838;SDS011;9548;56.920;14.804;2022-12-29T05:07:39;4.35;;;2.50;;
18838;SDS011;9548;56.920;14.804;2022-12-29T05:10:07;3.80;;;2.67;;
18838;SDS011;9548;56.920;14.804;2022-12-29T05:12:35;3.03;;;2.50;;
18838;SDS011;9548;56.920;14.804;2022-12-29T05:15:06;2.65;;;2.28;;
18838;SDS011;9548;56.920;14.804;2022-12-29T05:17:34;4.32;;;2.28;;
18838;SDS011;9548;56.920;14.804;2022-12-29T05:20:02;3.45;;;2.15;;
18838;SDS011;9548;56.920;14.804;2022-12-29T05:22:30;3.13;;;2.10;;
18838;SDS011;9548;56.920;14.804;2022-12-29T05:24:56;2.83;;;2.05;;
18838;SDS011;9548;56.920;14.804;2022-12-29T05:27:24;2.35;;;1.77;;
18838;SDS011;9548;56.920;14.804;2022-12-29T05:29:50;2.80;;;2.20;;
18838;SDS011;9548;56.920;14.804;2022-12-29T05:32:19;2.50;;;2.17;;
18838;SDS011;9548;56.920;14.804;2022-12-29T05:34:46;1.98;;;1.77;;
18838;SDS011;9548;56.920;14.804;2022-12-29T05:37:13;2.47;;;1.95;;
18838;SDS011;9548;56.920;14.804;2022-12-29T05:39:40;3.80;;;2.05;;
18838;SDS011;9548;56.920;14.804;2022-12-29T05:42:07;1.83;;;1.55;;
18838;SDS011;9548;56.920;14.804;2022-12-29T05:44:33;1.90;;;1.60;;
18838;SDS011;9548;56.920;14.804;2022-12-29T05:47:00;5.13;;;1.65;;
18838;SDS011;9548;56.920;14.804;2022-12-29T05:49:29;1.95;;;1.60;;
18838;SDS011;9548;56.920;14.804;2022-12-29T05:51:56;1.60;;;1.50;;
18838;SDS011;9548;56.920;14.804;2022-12-29T05:54:23;1.58;;;1.33;;
18838;SDS011;9548;56.920;14.804;2022-12-29T05:56:49;2.97;;;1.65;;
18838;SDS011;9548;56.920;14.804;2022-12-29T05:59:16;1.58;;;1.45;;
18838;SDS011;9548;56.920;14.804;2022-12-29T06:01:43;1.30;;;1.20;;
18838;SDS011;9548;56.920;14.804;2022-12-29T06:04:10;1.42;;;1.30;;
18838;SDS011;9548;56.920;14.804;2022-12-29T06:06:38;1.80;;;1.50;;
18838;SDS011;9548;56.920;14.804;2022-12-29T06:09:05;2.17;;;1.63;;
18838;SDS011;9548;56.920;14.804;2022-12-29T06:11:32;1.73;;;1.33;;
18838;SDS011;9548;56.920;14.804;2022-12-29T06:13:59;1.80;;;1.40;;
18838;SDS011;9548;56.920;14.804;2022-12-29T06:16:26;1.45;;;1.23;;
18838;SDS011;9548;56.920;14.804;2022-12-29T06:18:53;2.10;;;1.25;;
18838;SDS011;9548;56.920;14.804;2022-12-29T06:21:20;2.00;;;0.95;;
18838;SDS011;9548;56.920;14.804;2022-12-29T06:23:48;1.02;;;0.90;;
18838;SDS011;9548;56.920;14.804;2022-12-29T06:26:15;0.98;;;0.90;;
18838;SDS011;9548;56.920;14.804;2022-12-29T06:28:42;0.88;;;0.88;;
18838;SDS011;9548;56.920;14.804;2022-12-29T06:31:09;1.45;;;1.20;;
18838;SDS011;9548;56.920;14.804;2022-12-29T06:33:36;1.88;;;1.10;;
18838;SDS011;9548;56.920;14.804;2022-12-29T06:36:03;1.02;;;0.70;;
18838;SDS011;9548;56.920;14.804;2022-12-29T06:38:31;1.13;;;0.80;;
18838;SDS011;9548;56.920;14.804;2022-12-29T06:40:59;1.10;;;1.00;;
18838;SDS011;9548;56.920;14.804;2022-12-29T06:43:26;0.80;;;0.80;;
18838;SDS011;9548;56.920;14.804;2022-12-29T06:45:53;0.93;;;0.90;;
18838;SDS011;9548;56.920;14.804;2022-12-29T06:48:19;0.95;;;0.85;;
18838;SDS011;9548;56.920;14.804;2022-12-29T06:50:46;1.55;;;0.90;;
18838;SDS011;9548;56.920;14.804;2022-12-29T06:53:13;1.10;;;0.80;;
18838;SDS011;9548;56.920;14.804;2022-12-29T06:55:41;0.82;;;0.82;;
18838;SDS011;9548;56.920;14.804;2022-12-29T06:58:10;0.75;;;0.75;;
18838;SDS011;9548;56.920;14.804;2022-12-29T07:00:36;2.35;;;0.90;;
18838;SDS011;9548;56.920;14.804;2022-12-29T07:03:04;2.42;;;0.93;;
18838;SDS011;9548;56.920;14.804;2022-12-29T07:05:31;1.10;;;1.00;;
18838;SDS011;9548;56.920;14.804;2022-12-29T07:07:58;0.85;;;0.82;;
18838;SDS011;9548;56.920;14.804;2022-12-29T07:10:25;1.40;;;0.95;;
18838;SDS011;9548;56.920;14.804;2022-12-29T07:12:52;1.33;;;1.20;;
18838;SDS011;9548;56.920;14.804;2022-12-29T07:15:20;1.80;;;1.30;;
18838;SDS011;9548;56.920;14.804;2022-12-29T07:17:47;1.13;;;0.90;;
18838;SDS011;9548;56.920;14.804;2022-12-29T07:20:15;2.28;;;1.30;;
18838;SDS011;9548;56.920;14.804;2022-12-29T07:22:42;2.10;;;1.52;;
18838;SDS011;9548;56.920;14.804;2022-12-29T07:25:09;1.70;;;1.55;;
18838;SDS011;9548;56.920;14.804;2022-12-29T07:27:36;2.45;;;1.70;;
18838;SDS011;9548;56.920;14.804;2022-12-29T07:30:03;2.85;;;2.53;;
18838;SDS011;9548;56.920;14.804;2022-12-29T07:32:33;4.25;;;2.20;;
18838;SDS011;9548;56.920;14.804;2022-12-29T07:35:00;2.95;;;2.33;;
18838;SDS011;9548;56.920;14.804;2022-12-29T07:37:28;3.13;;;2.35;;
18838;SDS011;9548;56.920;14.804;2022-12-29T07:39:55;3.75;;;2.53;;
18838;SDS011;9548;56.920;14.804;2022-12-29T07:42:22;4.30;;;3.05;;
18838;SDS011;9548;56.920;14.804;2022-12-29T07:44:49;5.53;;;3.20;;
18838;SDS011;9548;56.920;14.804;2022-12-29T07:47:16;7.63;;;2.88;;
18838;SDS011;9548;56.920;14.804;2022-12-29T07:49:44;8.32;;;2.85;;
18838;SDS011;9548;56.920;14.804;2022-12-29T07:52:11;5.20;;;3.00;;
18838;SDS011;9548;56.920;14.804;2022-12-29T07:54:38;4.95;;;2.80;;
18838;SDS011;9548;56.920;14.804;2022-12-29T07:57:05;3.97;;;2.83;;
18838;SDS011;9548;56.920;14.804;2022-12-29T07:59:32;3.38;;;2.53;;
18838;SDS011;9548;56.920;14.804;2022-12-29T08:01:59;5.03;;;2.97;;
18838;SDS011;9548;56.920;14.804;2022-12-29T08:04:26;4.72;;;3.00;;
18838;SDS011;9548;56.920;14.804;2022-12-29T08:06:54;4.88;;;2.88;;
18838;SDS011;9548;56.920;14.804;2022-12-29T08:09:21;3.20;;;2.55;;
18838;SDS011;9548;56.920;14.804;2022-12-29T08:11:48;3.80;;;2.60;;
18838;SDS011;9548;56.920;14.804;2022-12-29T08:14:15;4.75;;;3.03;;
18838;SDS011;9548;56.920;14.804;2022-12-29T08:16:42;3.20;;;2.50;;
18838;SDS011;9548;56.920;14.804;2022-12-29T08:19:09;4.43;;;2.85;;
18838;SDS011;9548;56.920;14.804;2022-12-29T08:21:38;4.00;;;2.88;;
18838;SDS011;9548;56.920;14.804;2022-12-29T08:24:07;5.05;;;3.15;;
18838;SDS011;9548;56.920;14.804;2022-12-29T08:26:35;6.07;;;3.55;;
18838;SDS011;9548;56.920;14.804;2022-12-29T08:29:01;5.35;;;3.40;;
18838;SDS011;9548;56.920;14.804;2022-12-29T08:31:29;5.13;;;3.60;;
18838;SDS011;9548;56.920;14.804;2022-12-29T08:33:56;5.65;;;3.67;;
18838;SDS011;9548;56.920;14.804;2022-12-29T08:36:22;4.32;;;3.08;;
18838;SDS011;9548;56.920;14.804;2022-12-29T08:38:49;5.05;;;3.00;;
18838;SDS011;9548;56.920;14.804;2022-12-29T08:41:18;4.40;;;3.08;;
18838;SDS011;9548;56.920;14.804;2022-12-29T08:43:45;4.30;;;3.10;;
18838;SDS011;9548;56.920;14.804;2022-12-29T08:46:12;5.47;;;3.50;;
18838;SDS011;9548;56.920;14.804;2022-12-29T08:48:39;5.30;;;3.05;;
18838;SDS011;9548;56.920;14.804;2022-12-29T08:51:06;6.22;;;3.42;;
18838;SDS011;9548;56.920;14.804;2022-12-29T08:53:33;6.40;;;3.47;;
18838;SDS011;9548;56.920;14.804;2022-12-29T08:56:01;5.35;;;3.60;;
18838;SDS011;9548;56.920;14.804;2022-12-29T08:58:30;6.55;;;3.28;;
18838;SDS011;9548;56.920;14.804;2022-12-29T09:00:57;6.95;;;3.47;;
18838;SDS011;9548;56.920;14.804;2022-12-29T09:03:25;6.15;;;3.85;;
18838;SDS011;9548;56.920;14.804;2022-12-29T09:05:52;4.65;;;3.30;;
18838;SDS011;9548;56.920;14.804;2022-12-29T09:08:20;6.13;;;3.50;;
18838;SDS011;9548;56.920;14.804;2022-12-29T09:10:48;4.78;;;3.50;;
18838;SDS011;9548;56.920;14.804;2022-12-29T09:13:15;6.00;;;3.50;;
18838;SDS011;9548;56.920;14.804;2022-12-29T09:15:44;4.68;;;3.55;;
18838;SDS011;9548;56.920;14.804;2022-12-29T09:18:11;5.55;;;4.07;;
18838;SDS011;9548;56.920;14.804;2022-12-29T09:20:38;5.82;;;3.95;;
18838;SDS011;9548;56.920;14.804;2022-12-29T09:23:05;6.07;;;4.00;;
18838;SDS011;9548;56.920;14.804;2022-12-29T09:25:32;6.43;;;3.83;;
18838;SDS011;9548;56.920;14.804;2022-12-29T09:27:59;8.18;;;4.05;;
18838;SDS011;9548;56.920;14.804;2022-12-29T09:30:31;6.40;;;4.03;;
18838;SDS011;9548;56.920;14.804;2022-12-29T09:32:59;7.88;;;4.20;;
18838;SDS011;9548;56.920;14.804;2022-12-29T09:35:26;6.88;;;4.20;;
18838;SDS011;9548;56.920;14.804;2022-12-29T09:37:53;8.57;;;5.10;;
18838;SDS011;9548;56.920;14.804;2022-12-29T09:40:22;8.05;;;4.85;;
18838;SDS011;9548;56.920;14.804;2022-12-29T09:43:14;9.77;;;5.03;;
18838;SDS011;9548;56.920;14.804;2022-12-29T09:45:51;7.70;;;4.93;;
18838;SDS011;9548;56.920;14.804;2022-12-29T09:48:27;8.90;;;5.20;;
18838;SDS011;9548;56.920;14.804;2022-12-29T09:50:58;8.40;;;5.10;;
18838;SDS011;9548;56.920;14.804;2022-12-29T09:53:29;8.70;;;5.15;;
18838;SDS011;9548;56.920;14.804;2022-12-29T09:56:02;10.38;;;5.68;;
18838;SDS011;9548;56.920;14.804;2022-12-29T09:58:37;10.63;;;5.60;;
18838;SDS011;9548;56.920;14.804;2022-12-29T10:01:14;8.68;;;5.28;;
18838;SDS011;9548;56.920;14.804;2022-12-29T10:03:53;7.85;;;5.10;;
18838;SDS011;9548;56.920;14.804;2022-12-29T10:06:22;8.77;;;4.97;;
18838;SDS011;9548;56.920;14.804;2022-12-29T10:08:55;10.10;;;4.72;;
18838;SDS011;9548;56.920;14.804;2022-12-29T10:11:31;8.30;;;4.18;;
18838;SDS011;9548;56.920;14.804;2022-12-29T10:14:15;6.95;;;4.15;;
18838;SDS011;9548;56.920;14.804;2022-12-29T10:16:55;6.90;;;3.75;;
18838;SDS011;9548;56.920;14.804;2022-12-29T10:22:23;6.85;;;4.50;;
18838;SDS011;9548;56.920;14.804;2022-12-29T10:24:59;10.95;;;4.70;;
18838;SDS011;9548;56.920;14.804;2022-12-29T10:27:34;8.40;;;4.50;;
18838;SDS011;9548;56.920;14.804;2022-12-29T10:30:02;7.55;;;4.10;;
18838;SDS011;9548;56.920;14.804;2022-12-29T10:32:31;6.55;;;3.22;;
18838;SDS011;9548;56.920;14.804;2022-12-29T10:35:05;5.25;;;3.28;;
18838;SDS011;9548;56.920;14.804;2022-12-29T10:37:40;3.88;;;2.70;;
18838;SDS011;9548;56.920;14.804;2022-12-29T10:40:13;3.42;;;2.35;;
18838;SDS011;9548;56.920;14.804;2022-12-29T10:42:45;3.05;;;2.22;;
18838;SDS011;9548;56.920;14.804;2022-12-29T10:45:16;3.72;;;2.50;;
18838;SDS011;9548;56.920;14.804;2022-12-29T10:47:48;2.28;;;1.83;;
18838;SDS011;9548;56.920;14.804;2022-12-29T10:50:20;1.67;;;1.50;;
18838;SDS011;9548;56.920;14.804;2022-12-29T10:52:48;1.50;;;1.35;;
18838;SDS011;9548;56.920;14.804;2022-12-29T10:55:17;2.40;;;1.27;;
18838;SDS011;9548;56.920;14.804;2022-12-29T10:57:48;1.52;;;0.90;;
18838;SDS011;9548;56.920;14.804;2022-12-29T11:00:16;1.13;;;0.95;;
18838;SDS011;9548;56.920;14.804;2022-12-29T11:02:59;1.00;;;0.90;;
18838;SDS011;9548;56.920;14.804;2022-12-29T11:05:36;1.30;;;0.93;;
18838;SDS011;9548;56.920;14.804;2022-12-29T11:08:09;1.20;;;1.10;;
18838;SDS011;9548;56.920;14.804;2022-12-29T11:10:39;1.00;;;0.90;;
18838;SDS011;9548;56.920;14.804;2022-12-29T11:13:11;1.35;;;1.20;;
18838;SDS011;9548;56.920;14.804;2022-12-29T11:15:43;1.50;;;1.10;;
18838;SDS011;9548;56.920;14.804;2022-12-29T11:18:18;1.35;;;1.02;;
18838;SDS011;9548;56.920;14.804;2022-12-29T11:20:49;1.63;;;1.17;;
18838;SDS011;9548;56.920;14.804;2022-12-29T11:23:22;1.38;;;1.10;;
18838;SDS011;9548;56.920;14.804;2022-12-29T11:26:06;1.10;;;1.00;;
18838;SDS011;9548;56.920;14.804;2022-12-29T11:28:41;2.10;;;1.30;;
18838;SDS011;9548;56.920;14.804;2022-12-29T11:31:09;1.20;;;1.10;;
18838;SDS011;9548;56.920;14.804;2022-12-29T11:33:37;1.38;;;1.10;;
18838;SDS011;9548;56.920;14.804;2022-12-29T11:36:07;3.83;;;1.33;;
18838;SDS011;9548;56.920;14.804;2022-12-29T11:38:38;1.88;;;1.23;;
18838;SDS011;9548;56.920;14.804;2022-12-29T11:41:09;2.08;;;1.40;;
18838;SDS011;9548;56.920;14.804;2022-12-29T11:43:40;1.38;;;1.25;;
18838;SDS011;9548;56.920;14.804;2022-12-29T11:46:12;1.33;;;0.85;;
18838;SDS011;9548;56.920;14.804;2022-12-29T11:48:42;3.33;;;1.10;;
18838;SDS011;9548;56.920;14.804;2022-12-29T11:51:11;1.25;;;1.05;;
18838;SDS011;9548;56.920;14.804;2022-12-29T11:53:47;2.33;;;0.93;;
18838;SDS011;9548;56.920;14.804;2022-12-29T11:56:17;1.45;;;1.27;;
18838;SDS011;9548;56.920;14.804;2022-12-29T11:58:47;1.55;;;1.17;;
18838;SDS011;9548;56.920;14.804;2022-12-29T12:01:19;1.42;;;1.25;;
18838;SDS011;9548;56.920;14.804;2022-12-29T12:03:56;2.90;;;1.08;;
18838;SDS011;9548;56.920;14.804;2022-12-29T12:06:29;1.83;;;1.10;;
18838;SDS011;9548;56.920;14.804;2022-12-29T12:08:59;1.48;;;1.15;;
18838;SDS011;9548;56.920;14.804;2022-12-29T12:11:32;1.30;;;1.20;;
18838;SDS011;9548;56.920;14.804;2022-12-29T12:14:04;1.20;;;1.00;;
18838;SDS011;9548;56.920;14.804;2022-12-29T12:16:39;4.68;;;1.20;;
18838;SDS011;9548;56.920;14.804;2022-12-29T12:19:10;5.57;;;0.90;;
18838;SDS011;9548;56.920;14.804;2022-12-29T12:21:45;3.50;;;1.40;;
18838;SDS011;9548;56.920;14.804;2022-12-29T12:27:08;3.83;;;1.30;;
18838;SDS011;9548;56.920;14.804;2022-12-29T12:29:40;2.25;;;0.98;;
18838;SDS011;9548;56.920;14.804;2022-12-29T12:32:14;3.17;;;1.08;;
18838;SDS011;9548;56.920;14.804;2022-12-29T12:34:46;4.93;;;1.13;;
18838;SDS011;9548;56.920;14.804;2022-12-29T12:37:30;2.95;;;1.08;;
18838;SDS011;9548;56.920;14.804;2022-12-29T12:40:12;2.58;;;1.10;;
18838;SDS011;9548;56.920;14.804;2022-12-29T12:43:04;3.72;;;1.13;;
18838;SDS011;9548;56.920;14.804;2022-12-29T12:45:45;3.53;;;1.08;;
18838;SDS011;9548;56.920;14.804;2022-12-29T12:48:25;2.65;;;1.02;;
18838;SDS011;9548;56.920;14.804;2022-12-29T12:51:20;2.97;;;0.98;;
18838;SDS011;9548;56.920;14.804;2022-12-29T12:54:01;3.17;;;0.90;;
18838;SDS011;9548;56.920;14.804;2022-12-29T12:56:44;4.55;;;1.05;;
18838;SDS011;9548;56.920;14.804;2022-12-29T12:59:24;5.78;;;1.10;;
18838;SDS011;9548;56.920;14.804;2022-12-29T13:02:08;3.67;;;2.00;;
18838;SDS011;9548;56.920;14.804;2022-12-29T13:04:52;3.53;;;1.20;;
18838;SDS011;9548;56.920;14.804;2022-12-29T13:07:50;4.00;;;1.38;;
18838;SDS011;9548;56.920;14.804;2022-12-29T13:10:41;4.80;;;1.40;;
18838;SDS011;9548;56.920;14.804;2022-12-29T13:13:17;1.83;;;1.08;;
18838;SDS011;9548;56.920;14.804;2022-12-29T13:16:11;5.25;;;1.52;;
18838;SDS011;9548;56.920;14.804;2022-12-29T13:18:45;7.47;;;1.60;;
18838;SDS011;9548;56.920;14.804;2022-12-29T13:21:22;5.18;;;1.35;;
18838;SDS011;9548;56.920;14.804;2022-12-29T13:24:01;3.45;;;1.20;;
18838;SDS011;9548;56.920;14.804;2022-12-29T13:26:37;5.45;;;1.42;;
18838;SDS011;9548;56.920;14.804;2022-12-29T13:29:12;5.50;;;1.10;;
18838;SDS011;9548;56.920;14.804;2022-12-29T13:31:47;4.82;;;1.30;;
18838;SDS011;9548;56.920;14.804;2022-12-29T13:34:21;3.28;;;1.40;;
18838;SDS011;9548;56.920;14.804;2022-12-29T13:36:56;4.63;;;1.35;;
18838;SDS011;9548;56.920;14.804;2022-12-29T13:39:27;7.43;;;1.40;;
18838;SDS011;9548;56.920;14.804;2022-12-29T13:42:01;2.65;;;1.30;;
18838;SDS011;9548;56.920;14.804;2022-12-29T13:44:31;5.53;;;1.77;;
18838;SDS011;9548;56.920;14.804;2022-12-29T13:47:02;7.32;;;2.00;;
18838;SDS011;9548;56.920;14.804;2022-12-29T13:49:34;10.18;;;1.45;;
18838;SDS011;9548;56.920;14.804;2022-12-29T13:52:04;5.00;;;1.45;;
18838;SDS011;9548;56.920;14.804;2022-12-29T13:54:39;5.90;;;1.50;;
18838;SDS011;9548;56.920;14.804;2022-12-29T13:57:23;9.75;;;1.27;;
18838;SDS011;9548;56.920;14.804;2022-12-29T14:00:07;5.88;;;1.42;;
18838;SDS011;9548;56.920;14.804;2022-12-29T14:02:42;4.30;;;1.45;;
18838;SDS011;9548;56.920;14.804;2022-12-29T14:05:29;4.88;;;1.13;;
18838;SDS011;9548;56.920;14.804;2022-12-29T14:07:58;4.57;;;1.10;;
18838;SDS011;9548;56.920;14.804;2022-12-29T14:10:27;10.82;;;1.77;;
18838;SDS011;9548;56.920;14.804;2022-12-29T14:13:06;3.97;;;1.52;;
18838;SDS011;9548;56.920;14.804;2022-12-29T14:15:38;3.58;;;1.30;;
18838;SDS011;9548;56.920;14.804;2022-12-29T14:18:11;4.75;;;1.58;;
18838;SDS011;9548;56.920;14.804;2022-12-29T14:20:53;9.88;;;1.30;;
18838;SDS011;9548;56.920;14.804;2022-12-29T14:23:29;10.35;;;1.65;;
18838;SDS011;9548;56.920;14.804;2022-12-29T14:26:10;3.42;;;1.60;;
18838;SDS011;9548;56.920;14.804;2022-12-29T14:28:41;4.13;;;1.27;;
18838;SDS011;9548;56.920;14.804;2022-12-29T14:34:15;8.68;;;1.42;;
18838;SDS011;9548;56.920;14.804;2022-12-29T14:36:53;3.60;;;1.30;;
18838;SDS011;9548;56.920;14.804;2022-12-29T14:39:28;8.65;;;1.38;;
18838;SDS011;9548;56.920;14.804;2022-12-29T14:41:59;4.55;;;1.27;;
18838;SDS011;9548;56.920;14.804;2022-12-29T14:44:28;6.00;;;1.35;;
18838;SDS011;9548;56.920;14.804;2022-12-29T14:46:55;5.20;;;1.27;;
18838;SDS011;9548;56.920;14.804;2022-12-29T14:49:26;7.13;;;1.60;;
18838;SDS011;9548;56.920;14.804;2022-12-29T14:51:54;4.57;;;1.58;;
18838;SDS011;9548;56.920;14.804;2022-12-29T14:54:48;10.43;;;1.40;;
18838;SDS011;9548;56.920;14.804;2022-12-29T14:57:21;5.75;;;1.20;;
18838;SDS011;9548;56.920;14.804;2022-12-29T15:00:00;5.95;;;1.52;;
18838;SDS011;9548;56.920;14.804;2022-12-29T15:02:32;6.53;;;1.20;;
18838;SDS011;9548;56.920;14.804;2022-12-29T15:05:05;4.45;;;1.40;;
18838;SDS011;9548;56.920;14.804;2022-12-29T15:07:47;4.55;;;1.00;;
18838;SDS011;9548;56.920;14.804;2022-12-29T15:10:15;3.30;;;0.82;;
18838;SDS011;9548;56.920;14.804;2022-12-29T15:12:45;4.03;;;0.93;;
18838;SDS011;9548;56.920;14.804;2022-12-29T15:15:20;5.65;;;0.73;;
18838;SDS011;9548;56.920;14.804;2022-12-29T15:17:48;3.50;;;0.70;;
18838;SDS011;9548;56.920;14.804;2022-12-29T15:20:19;6.75;;;1.08;;
18838;SDS011;9548;56.920;14.804;2022-12-29T15:22:50;1.92;;;0.60;;
18838;SDS011;9548;56.920;14.804;2022-12-29T15:25:20;5.72;;;0.70;;
18838;SDS011;9548;56.920;14.804;2022-12-29T15:27:50;6.05;;;1.00;;